Time;durP1;ratioP1;P1;durP2;ratioP2;P2;SDS_P1;SDS_P2;PMS_P1;PMS_P2;Temp;Humidity;BMP_temperature;BMP_pressure;BME280_temperature;BME280_humidity;BME280_pressure;Samples;Min_cycle;Max_cycle;Signal;HPM_P1;HPM_P2
2023/03/17 00:01:09;;;;;;;7.03;2.25;;;;;;;-144.57;100.00;62443.72;5031103;28;20052;-63
2023/03/17 00:03:39;;;;;;;2.83;2.00;;;;;;;-144.57;100.00;62443.72;5017240;28;20124;-62
2023/03/17 00:06:09;;;;;;;7.95;2.10;;;;;;;-144.57;100.00;62443.72;5017445;28;20099;-63
2023/03/17 00:08:34;;;;;;;4.33;2.10;;;;;;;-144.57;100.00;62443.72;5018114;28;20042;-63
2023/03/17 00:11:01;;;;;;;7.13;2.50;;;;;;;-144.57;100.00;62443.72;5035476;28;20037;-63
2023/03/17 00:13:27;;;;;;;6.43;2.30;;;;;;;-144.57;100.00;62443.72;5034926;28;20523;-63
2023/03/17 00:16:01;;;;;;;3.70;2.40;;;;;;;-144.57;100.00;62443.72;5035415;28;20566;-62
2023/03/17 00:18:29;;;;;;;3.58;2.47;;;;;;;-144.57;100.00;62443.72;5017123;28;20414;-62
2023/03/17 00:20:54;;;;;;;7.93;2.97;;;;;;;-144.57;100.00;62443.72;5035396;28;20125;-63
2023/03/17 00:23:22;;;;;;;5.68;3.38;;;;;;;-144.57;100.00;62443.72;5035037;28;20124;-63
2023/03/17 00:25:48;;;;;;;6.85;3.75;;;;;;;-144.57;100.00;62443.72;5017839;28;20038;-63
2023/03/17 00:28:17;;;;;;;6.03;3.45;;;;;;;-144.57;100.00;62443.72;5035269;28;20055;-62
2023/03/17 00:30:43;;;;;;;9.23;4.28;;;;;;;-144.57;100.00;62443.72;5035519;28;20068;-63
2023/03/17 00:33:12;;;;;;;6.72;3.55;;;;;;;-144.57;100.00;62443.72;5017363;28;20099;-63
2023/03/17 00:35:39;;;;;;;8.82;4.07;;;;;;;-144.57;100.00;62443.72;5017483;28;20111;-64
2023/03/17 00:38:09;;;;;;;9.32;4.35;;;;;;;-144.57;100.00;62443.72;5035297;28;20072;-63
2023/03/17 00:40:35;;;;;;;9.82;4.07;;;;;;;-144.57;100.00;62443.72;5034885;28;20042;-63
2023/03/17 00:43:04;;;;;;;7.88;4.60;;;;;;;-144.57;100.00;62443.72;5034771;28;20073;-61
2023/03/17 00:45:30;;;;;;;9.35;4.40;;;;;;;-144.57;100.00;62443.72;5017126;28;20057;-64
2023/03/17 00:47:56;;;;;;;11.70;5.00;;;;;;;-144.57;100.00;62443.72;5034457;28;20052;-64
2023/03/17 00:50:24;;;;;;;6.50;3.97;;;;;;;-144.57;100.00;62443.72;5016893;28;20041;-65
2023/03/17 00:52:51;;;;;;;11.10;4.22;;;;;;;-144.57;100.00;62443.72;5034694;28;20048;-61
2023/03/17 00:55:18;;;;;;;5.95;3.95;;;;;;;-144.57;100.00;62443.72;5034512;28;20041;-62
2023/03/17 00:57:47;;;;;;;6.90;3.55;;;;;;;-144.57;100.00;62443.72;5034342;28;20628;-61
2023/03/17 01:00:18;;;;;;;8.27;3.83;;;;;;;-144.57;100.00;62443.72;5034082;28;20041;-62
2023/03/17 01:02:44;;;;;;;7.85;3.83;;;;;;;-144.57;100.00;62443.72;5016541;28;20080;-62
2023/03/17 01:05:11;;;;;;;4.80;3.55;;;;;;;-144.57;100.00;62443.72;5016867;28;20506;-60
2023/03/17 01:07:37;;;;;;;5.95;3.45;;;;;;;-144.57;100.00;62443.72;5033105;28;20046;-62
2023/03/17 01:10:11;;;;;;;6.70;3.80;;;;;;;-144.57;100.00;62443.72;5017109;28;20142;-61
2023/03/17 01:12:38;;;;;;;8.88;4.53;;;;;;;-144.57;100.00;62443.72;5017802;28;20045;-62
2023/03/17 01:15:05;;;;;;;6.13;3.17;;;;;;;-144.57;100.00;62443.72;5015812;28;20056;-62
2023/03/17 01:17:32;;;;;;;6.65;3.50;;;;;;;-144.57;100.00;62443.72;5034542;28;20053;-61
2023/03/17 01:19:58;;;;;;;5.63;3.20;;;;;;;-144.57;100.00;62443.72;5034451;28;20417;-60
2023/03/17 01:22:24;;;;;;;7.75;4.13;;;;;;;-144.57;100.00;62443.72;5034297;28;20390;-61
2023/03/17 01:24:50;;;;;;;7.80;4.43;;;;;;;-144.57;100.00;62443.72;5033920;28;20413;-62
2023/03/17 01:27:17;;;;;;;10.13;3.80;;;;;;;-144.57;100.00;62443.72;5032772;28;20562;-63
2023/03/17 01:29:43;;;;;;;6.60;3.65;;;;;;;-144.57;100.00;62443.72;5034245;28;20046;-61
2023/03/17 01:32:09;;;;;;;7.97;3.20;;;;;;;-144.57;100.00;62443.72;5034353;28;20378;-62
2023/03/17 01:34:35;;;;;;;5.53;3.35;;;;;;;-144.57;100.00;62443.72;5033873;28;20137;-61
2023/03/17 01:37:01;;;;;;;5.00;3.00;;;;;;;-144.57;100.00;62443.72;5015878;28;20132;-61
2023/03/17 01:39:27;;;;;;;3.65;2.70;;;;;;;-144.57;100.00;62443.72;5015843;28;20050;-61
2023/03/17 01:41:55;;;;;;;4.75;2.70;;;;;;;-144.57;100.00;62443.72;5032416;28;20046;-63
2023/03/17 01:44:22;;;;;;;5.78;3.10;;;;;;;-144.57;100.00;62443.72;5016136;28;20518;-62
2023/03/17 01:46:49;;;;;;;6.50;2.80;;;;;;;-144.57;100.00;62443.72;5015943;28;20045;-63
2023/03/17 01:49:24;;;;;;;5.10;2.47;;;;;;;-144.57;100.00;62443.72;5033232;28;20490;-62
2023/03/17 01:51:57;;;;;;;2.78;1.90;;;;;;;-144.57;100.00;62443.72;5016118;28;20049;-62
2023/03/17 01:54:40;;;;;;;5.28;2.30;;;;;;;-144.57;100.00;62443.72;5016252;28;20111;-62
2023/03/17 01:57:15;;;;;;;2.88;2.00;;;;;;;-144.57;100.00;62443.72;5015930;28;20042;-61
2023/03/17 01:59:45;;;;;;;7.75;2.40;;;;;;;-144.57;100.00;62443.72;4999057;28;20037;-62
2023/03/17 02:02:14;;;;;;;4.07;2.50;;;;;;;-144.57;100.00;62443.72;5015248;28;20498;-62
2023/03/17 02:04:40;;;;;;;4.20;2.20;;;;;;;-144.57;100.00;62443.72;5015502;28;20045;-63
2023/03/17 02:07:06;;;;;;;5.18;2.35;;;;;;;-144.57;100.00;62443.72;5015356;28;20052;-62
2023/03/17 02:09:33;;;;;;;5.32;2.38;;;;;;;-144.57;100.00;62443.72;5031729;28;20124;-63
2023/03/17 02:11:59;;;;;;;3.35;2.30;;;;;;;-144.57;100.00;62443.72;5032969;28;20069;-63
2023/03/17 02:14:26;;;;;;;5.38;2.38;;;;;;;-144.57;100.00;62443.72;5031531;28;20413;-63
2023/03/17 02:16:52;;;;;;;3.20;1.92;;;;;;;-144.57;100.00;62443.72;4998804;28;20525;-62
2023/03/17 02:19:17;;;;;;;2.55;2.03;;;;;;;-144.57;100.00;62443.72;5032825;28;20502;-63
2023/03/17 02:21:49;;;;;;;5.40;2.30;;;;;;;-144.57;100.00;62443.72;5032985;28;20048;-61
2023/03/17 02:24:32;;;;;;;4.25;2.38;;;;;;;-144.57;100.00;62443.72;5014930;28;20086;-63
2023/03/17 02:27:18;;;;;;;6.03;2.38;;;;;;;-144.57;100.00;62443.72;5013934;28;20046;-63
2023/03/17 02:29:45;;;;;;;6.88;2.30;;;;;;;-144.57;100.00;62443.72;4998219;28;20121;-63
2023/03/17 02:32:16;;;;;;;4.00;2.15;;;;;;;-144.57;100.00;62443.72;5032470;28;20049;-62
2023/03/17 02:34:43;;;;;;;4.43;2.03;;;;;;;-144.57;100.00;62443.72;5014477;28;20080;-62
2023/03/17 02:37:09;;;;;;;5.00;2.00;;;;;;;-144.57;100.00;62443.72;5030982;28;20552;-63
2023/03/17 02:39:36;;;;;;;3.75;2.15;;;;;;;-144.57;100.00;62443.72;5032314;28;20045;-63
2023/03/17 02:42:03;;;;;;;2.45;1.80;;;;;;;-144.57;100.00;62443.72;5014920;28;20140;-62
2023/03/17 02:44:29;;;;;;;3.33;1.90;;;;;;;-144.57;100.00;62443.72;5031891;28;20041;-64
2023/03/17 02:46:55;;;;;;;4.32;2.17;;;;;;;-144.57;100.00;62443.72;5032460;28;20087;-62
2023/03/17 02:49:21;;;;;;;2.88;1.63;;;;;;;-144.57;100.00;62443.72;5032359;28;20492;-61
2023/03/17 02:51:47;;;;;;;2.67;2.00;;;;;;;-144.57;100.00;62443.72;5032020;28;20409;-61
2023/03/17 02:54:13;;;;;;;3.75;2.00;;;;;;;-144.57;100.00;62443.72;5032884;28;20037;-63
2023/03/17 02:56:39;;;;;;;7.07;2.03;;;;;;;-144.57;100.00;62443.72;5032167;28;20033;-63
2023/03/17 02:59:06;;;;;;;2.88;1.77;;;;;;;-144.57;100.00;62443.72;5032547;28;20072;-61
2023/03/17 03:01:32;;;;;;;2.92;1.70;;;;;;;-144.57;100.00;62443.72;5031999;28;20362;-63
2023/03/17 03:03:58;;;;;;;3.58;1.70;;;;;;;-144.57;100.00;62443.72;5032781;28;20049;-61
2023/03/17 03:06:24;;;;;;;3.75;1.83;;;;;;;-144.57;100.00;62443.72;5032659;28;20045;-66
2023/03/17 03:08:50;;;;;;;4.38;1.60;;;;;;;-144.57;100.00;62443.72;5032561;28;20092;-61
2023/03/17 03:11:15;;;;;;;5.85;2.35;;;;;;;-144.57;100.00;62443.72;5031939;28;20071;-64
2023/03/17 03:13:41;;;;;;;3.53;2.22;;;;;;;-144.57;100.00;62443.72;5032201;28;20334;-63
2023/03/17 03:16:08;;;;;;;7.63;2.10;;;;;;;-144.57;100.00;62443.72;5031765;28;20140;-64
2023/03/17 03:18:34;;;;;;;3.08;1.60;;;;;;;-144.57;100.00;62443.72;5032961;28;20054;-63
2023/03/17 03:21:00;;;;;;;2.58;1.77;;;;;;;-144.57;100.00;62443.72;5032381;28;20043;-62
2023/03/17 03:23:26;;;;;;;3.35;1.73;;;;;;;-144.57;100.00;62443.72;5032267;28;20122;-64
2023/03/17 03:25:52;;;;;;;4.45;1.90;;;;;;;-144.57;100.00;62443.72;5032259;28;20045;-64
2023/03/17 03:28:18;;;;;;;4.63;2.20;;;;;;;-144.57;100.00;62443.72;5032150;28;20060;-63
2023/03/17 03:30:44;;;;;;;3.53;1.92;;;;;;;-144.57;100.00;62443.72;5031556;28;20044;-62
2023/03/17 03:33:11;;;;;;;2.45;1.80;;;;;;;-144.57;100.00;62443.72;5024750;28;20038;-62
2023/03/17 03:35:37;;;;;;;2.88;2.05;;;;;;;-144.57;100.00;62443.72;4994427;28;20485;-63
2023/03/17 03:38:03;;;;;;;6.53;2.15;;;;;;;-144.57;100.00;62443.72;5011837;28;20046;-62
2023/03/17 03:40:29;;;;;;;5.07;1.77;;;;;;;-144.57;100.00;62443.72;5012128;28;20045;-62
2023/03/17 03:42:55;;;;;;;2.63;1.92;;;;;;;-144.57;100.00;62443.72;5011613;28;20053;-61
2023/03/17 03:45:20;;;;;;;3.63;1.80;;;;;;;-144.57;100.00;62443.72;5010431;28;20061;-63
2023/03/17 03:47:46;;;;;;;2.50;1.80;;;;;;;-144.57;100.00;62443.72;4994601;28;20080;-63
2023/03/17 03:50:12;;;;;;;2.83;1.70;;;;;;;-144.57;100.00;62443.72;5011907;28;20356;-62
2023/03/17 03:52:38;;;;;;;4.25;1.85;;;;;;;-144.57;100.00;62443.72;5012094;28;20054;-63
2023/03/17 03:55:03;;;;;;;3.40;1.73;;;;;;;-144.57;100.00;62443.72;5011945;28;20091;-62
2023/03/17 03:57:29;;;;;;;4.15;2.22;;;;;;;-144.57;100.00;62443.72;5011678;28;20103;-62
2023/03/17 03:59:55;;;;;;;3.55;2.00;;;;;;;-144.57;100.00;62443.72;5011416;28;20510;-63
2023/03/17 04:02:20;;;;;;;3.20;1.95;;;;;;;-144.57;100.00;62443.72;5011324;28;20064;-60
2023/03/17 04:04:46;;;;;;;8.40;2.25;;;;;;;-144.57;100.00;62443.72;5011725;28;20052;-63
2023/03/17 04:07:12;;;;;;;4.65;2.13;;;;;;;-144.57;100.00;62443.72;5011231;28;20049;-61
2023/03/17 04:09:38;;;;;;;7.75;2.10;;;;;;;-144.57;100.00;62443.72;5011292;28;20156;-63
2023/03/17 04:12:04;;;;;;;3.63;2.20;;;;;;;-144.57;100.00;62443.72;5011311;28;20113;-63
2023/03/17 04:14:30;;;;;;;2.33;2.00;;;;;;;-144.57;100.00;62443.72;5010811;28;20108;-62
2023/03/17 04:16:56;;;;;;;3.65;1.83;;;;;;;-144.57;100.00;62443.72;5010464;28;20084;-62
2023/03/17 04:19:22;;;;;;;5.13;2.40;;;;;;;-144.57;100.00;62443.72;5011034;28;20073;-63
2023/03/17 04:21:48;;;;;;;3.53;1.90;;;;;;;-144.57;100.00;62443.72;5011102;28;20502;-62
2023/03/17 04:24:13;;;;;;;4.43;2.17;;;;;;;-144.57;100.00;62443.72;5011565;28;20521;-62
2023/03/17 04:26:40;;;;;;;4.30;2.08;;;;;;;-144.57;100.00;62443.72;5011467;28;20502;-64
2023/03/17 04:29:07;;;;;;;4.50;1.92;;;;;;;-144.57;100.00;62443.72;5011725;28;20046;-64
2023/03/17 04:31:35;;;;;;;3.63;2.00;;;;;;;-144.57;100.00;62443.72;5012503;28;20048;-63
2023/03/17 04:34:02;;;;;;;5.78;2.00;;;;;;;-144.57;100.00;62443.72;4962168;28;20050;-62
2023/03/17 04:36:30;;;;;;;6.88;1.75;;;;;;;-144.57;100.00;62443.72;5011538;28;20080;-63
2023/03/17 04:38:55;;;;;;;4.93;1.92;;;;;;;-144.57;100.00;62443.72;5009308;28;20049;-63
2023/03/17 04:41:21;;;;;;;3.28;2.33;;;;;;;-144.57;100.00;62443.72;5010674;28;20045;-66
2023/03/17 04:43:46;;;;;;;3.70;2.10;;;;;;;-144.57;100.00;62443.72;5010736;28;20379;-62
2023/03/17 04:46:13;;;;;;;4.28;2.20;;;;;;;-144.57;100.00;62443.72;5010754;28;20432;-65
2023/03/17 04:48:39;;;;;;;3.70;2.40;;;;;;;-144.57;100.00;62443.72;5010501;28;20499;-64
2023/03/17 04:51:05;;;;;;;3.17;2.00;;;;;;;-144.57;100.00;62443.72;5014785;28;20042;-63
2023/03/17 04:53:30;;;;;;;4.53;2.08;;;;;;;-144.57;100.00;62443.72;5015384;28;20054;-62
2023/03/17 04:55:56;;;;;;;2.15;1.90;;;;;;;-144.57;100.00;62443.72;5013752;28;20301;-62
2023/03/17 04:58:23;;;;;;;3.55;2.00;;;;;;;-144.57;100.00;62443.72;5014912;28;20410;-63
2023/03/17 05:00:49;;;;;;;4.22;1.88;;;;;;;-144.57;100.00;62443.72;5013325;28;20569;-63
2023/03/17 05:03:15;;;;;;;3.60;2.30;;;;;;;-144.57;100.00;62443.72;5015590;28;20450;-62
2023/03/17 05:05:41;;;;;;;5.10;2.08;;;;;;;-144.57;100.00;62443.72;5015109;28;20406;-65
2023/03/17 05:08:06;;;;;;;5.90;2.40;;;;;;;-144.57;100.00;62443.72;5014768;28;20065;-63
2023/03/17 05:10:32;;;;;;;3.33;2.00;;;;;;;-144.57;100.00;62443.72;5014503;28;20542;-64
2023/03/17 05:12:57;;;;;;;2.78;1.90;;;;;;;-144.57;100.00;62443.72;5014628;28;20062;-63
2023/03/17 05:15:23;;;;;;;3.00;1.80;;;;;;;-144.57;100.00;62443.72;5014266;28;20046;-65
2023/03/17 05:17:49;;;;;;;2.15;1.52;;;;;;;-144.57;100.00;62443.72;5014368;28;20050;-63
2023/03/17 05:20:15;;;;;;;3.22;2.17;;;;;;;-144.57;100.00;62443.72;5014331;28;20041;-63
2023/03/17 05:22:40;;;;;;;3.92;1.80;;;;;;;-144.57;100.00;62443.72;5014466;28;20095;-63
2023/03/17 05:25:06;;;;;;;2.80;1.95;;;;;;;-144.57;100.00;62443.72;5013603;28;20045;-63
2023/03/17 05:27:32;;;;;;;4.55;1.63;;;;;;;-144.57;100.00;62443.72;5014864;28;20050;-64
2023/03/17 05:29:58;;;;;;;3.95;1.90;;;;;;;-144.57;100.00;62443.72;5014305;28;20046;-62
2023/03/17 05:32:24;;;;;;;5.72;1.63;;;;;;;-144.57;100.00;62443.72;5013552;28;20452;-63
2023/03/17 05:34:52;;;;;;;7.30;2.45;;;;;;;-144.57;100.00;62443.72;5028093;28;20045;-63
2023/03/17 05:37:17;;;;;;;3.45;2.17;;;;;;;-144.57;100.00;62443.72;5012817;28;20079;-62
2023/03/17 05:39:43;;;;;;;3.88;1.80;;;;;;;-144.57;100.00;62443.72;5013282;28;20133;-64
2023/03/17 05:42:08;;;;;;;3.78;1.77;;;;;;;-144.57;100.00;62443.72;5011807;28;20119;-65
2023/03/17 05:44:34;;;;;;;5.90;1.88;;;;;;;-144.57;100.00;62443.72;5012064;28;20433;-63
2023/03/17 05:47:00;;;;;;;2.40;1.83;;;;;;;-144.57;100.00;62443.72;5011496;28;20041;-62
2023/03/17 05:49:27;;;;;;;5.03;2.00;;;;;;;-144.57;100.00;62443.72;5027022;28;20424;-62
2023/03/17 05:51:54;;;;;;;3.08;1.85;;;;;;;-144.57;100.00;62443.72;5032655;28;20056;-63
2023/03/17 05:54:21;;;;;;;2.45;1.45;;;;;;;-144.57;100.00;62443.72;5016926;28;20052;-63
2023/03/17 05:56:47;;;;;;;2.28;1.45;;;;;;;-144.57;100.00;62443.72;5009928;28;20053;-63
2023/03/17 05:59:17;;;;;;;2.25;1.67;;;;;;;-144.57;100.00;62443.72;5009550;28;20073;-63
2023/03/17 06:01:43;;;;;;;2.03;1.45;;;;;;;-144.57;100.00;62443.72;5011333;28;20430;-63
2023/03/17 06:04:09;;;;;;;5.95;1.80;;;;;;;-144.57;100.00;62443.72;5022406;28;20459;-63
2023/03/17 06:06:34;;;;;;;2.05;1.50;;;;;;;-144.57;100.00;62443.72;5015340;28;20502;-64
2023/03/17 06:09:00;;;;;;;2.97;1.50;;;;;;;-144.57;100.00;62443.72;5011124;28;20045;-63
2023/03/17 06:11:26;;;;;;;3.45;1.60;;;;;;;-144.57;100.00;62443.72;5009132;28;20124;-64
2023/03/17 06:13:52;;;;;;;3.17;1.40;;;;;;;-144.57;100.00;62443.72;4993656;28;20045;-64
2023/03/17 06:16:18;;;;;;;3.60;1.50;;;;;;;-144.57;100.00;62443.72;5010972;28;20061;-63
2023/03/17 06:18:44;;;;;;;1.95;1.55;;;;;;;-144.57;100.00;62443.72;5012944;28;20042;-64
2023/03/17 06:21:11;;;;;;;2.25;1.38;;;;;;;-144.57;100.00;62443.72;5011524;28;20108;-64
2023/03/17 06:23:37;;;;;;;1.80;1.60;;;;;;;-144.57;100.00;62443.72;5013237;28;20077;-65
2023/03/17 06:26:03;;;;;;;1.73;1.40;;;;;;;-144.57;100.00;62443.72;5010726;28;20048;-63
2023/03/17 06:28:28;;;;;;;2.33;1.38;;;;;;;-144.57;100.00;62443.72;5010450;28;20442;-62
2023/03/17 06:30:54;;;;;;;2.13;1.25;;;;;;;-144.57;100.00;62443.72;5012531;28;20037;-65
2023/03/17 06:33:20;;;;;;;1.67;1.40;;;;;;;-144.57;100.00;62443.72;5012603;28;20129;-63
2023/03/17 06:35:46;;;;;;;3.50;1.77;;;;;;;-144.57;100.00;62443.72;5011281;28;20442;-64
2023/03/17 06:38:12;;;;;;;3.80;1.52;;;;;;;-144.57;100.00;62443.72;5010162;28;20072;-63
2023/03/17 06:40:38;;;;;;;1.73;1.17;;;;;;;-144.57;100.00;62443.72;5008547;28;20522;-62
2023/03/17 06:43:03;;;;;;;1.98;1.13;;;;;;;-144.57;100.00;62443.72;5011855;28;20291;-63
2023/03/17 06:45:31;;;;;;;1.90;1.35;;;;;;;-144.57;100.00;62443.72;5010939;28;20069;-63
2023/03/17 06:47:57;;;;;;;3.38;1.73;;;;;;;-144.57;100.00;62443.72;5011106;28;20151;-63
2023/03/17 06:50:23;;;;;;;1.73;1.20;;;;;;;-144.57;100.00;62443.72;5011494;28;20081;-70
2023/03/17 06:52:49;;;;;;;3.45;1.40;;;;;;;-144.57;100.00;62443.72;5011587;28;20435;-64
2023/03/17 06:55:15;;;;;;;1.38;1.10;;;;;;;-144.57;100.00;62443.72;5012005;28;20520;-61
2023/03/17 06:57:41;;;;;;;1.30;1.20;;;;;;;-144.57;100.00;62443.72;5012220;28;20056;-62
2023/03/17 07:00:11;;;;;;;3.15;1.13;;;;;;;-144.57;100.00;62443.72;5011660;28;20046;-65
2023/03/17 07:02:37;;;;;;;2.38;1.30;;;;;;;-144.57;100.00;62443.72;5011334;28;20084;-63
2023/03/17 07:05:03;;;;;;;4.95;1.55;;;;;;;-144.57;100.00;62443.72;5009325;28;20046;-62
2023/03/17 07:07:29;;;;;;;3.30;1.30;;;;;;;-144.57;100.00;62443.72;4993791;28;20084;-62
2023/03/17 07:09:54;;;;;;;2.33;1.30;;;;;;;-144.57;100.00;62443.72;5011049;28;20045;-64
2023/03/17 07:12:20;;;;;;;3.90;1.38;;;;;;;-144.57;100.00;62443.72;5010646;28;20057;-64
2023/03/17 07:14:46;;;;;;;1.63;1.23;;;;;;;-144.57;100.00;62443.72;4993933;28;20140;-63
2023/03/17 07:17:13;;;;;;;1.50;1.33;;;;;;;-144.57;100.00;62443.72;5010749;28;20117;-63
2023/03/17 07:19:39;;;;;;;2.20;1.45;;;;;;;-144.57;100.00;62443.72;4992886;28;20091;-64
2023/03/17 07:22:06;;;;;;;1.88;1.70;;;;;;;-144.57;100.00;62443.72;5010207;28;20042;-63
2023/03/17 07:24:31;;;;;;;4.10;1.35;;;;;;;-144.57;100.00;62443.72;5011014;28;20037;-62
2023/03/17 07:26:57;;;;;;;1.45;1.17;;;;;;;-144.57;100.00;62443.72;5010424;28;20144;-64
2023/03/17 07:29:23;;;;;;;2.40;1.40;;;;;;;-144.57;100.00;62443.72;5011079;28;20072;-62
2023/03/17 07:31:48;;;;;;;4.65;1.65;;;;;;;-144.57;100.00;62443.72;5009158;28;20414;-63
2023/03/17 07:34:15;;;;;;;3.22;1.48;;;;;;;-144.57;100.00;62443.72;5009494;28;20054;-63
2023/03/17 07:36:41;;;;;;;3.90;1.23;;;;;;;-144.57;100.00;62443.72;5009647;28;20129;-64
2023/03/17 07:39:07;;;;;;;2.10;1.35;;;;;;;-144.57;100.00;62443.72;5011066;28;20069;-69
2023/03/17 07:41:33;;;;;;;2.90;1.40;;;;;;;-144.57;100.00;62443.72;4991729;28;20038;-63
2023/03/17 07:43:58;;;;;;;2.65;1.58;;;;;;;-144.57;100.00;62443.72;5008407;28;20072;-63
2023/03/17 07:46:24;;;;;;;2.40;1.42;;;;;;;-144.57;100.00;62443.72;4975931;28;20467;-64
2023/03/17 07:48:50;;;;;;;1.95;1.50;;;;;;;-144.57;100.00;62443.72;5009564;28;20423;-64
2023/03/17 07:51:19;;;;;;;5.22;1.95;;;;;;;-144.57;100.00;62443.72;5007823;28;20042;-63
2023/03/17 07:53:45;;;;;;;1.77;1.47;;;;;;;-144.57;100.00;62443.72;5009968;28;20502;-66
2023/03/17 07:56:11;;;;;;;2.97;1.30;;;;;;;-144.57;100.00;62443.72;5009922;28;20297;-65
2023/03/17 07:58:37;;;;;;;1.33;1.00;;;;;;;-144.57;100.00;62443.72;5009928;28;20081;-65
2023/03/17 08:01:03;;;;;;;2.30;1.30;;;;;;;-144.57;100.00;62443.72;5009349;28;20133;-66
2023/03/17 08:03:30;;;;;;;2.33;1.38;;;;;;;-144.57;100.00;62443.72;5010311;28;20096;-64
2023/03/17 08:05:56;;;;;;;1.75;1.40;;;;;;;-144.57;100.00;62443.72;5009417;28;20092;-64
2023/03/17 08:08:23;;;;;;;3.72;1.20;;;;;;;-144.57;100.00;62443.72;5009609;28;20585;-63
2023/03/17 08:10:49;;;;;;;2.58;1.65;;;;;;;-144.57;100.00;62443.72;5012022;28;20843;-62
2023/03/17 08:13:15;;;;;;;2.20;1.20;;;;;;;-144.57;100.00;62443.72;5030107;28;20060;-60
2023/03/17 08:15:41;;;;;;;2.90;1.50;;;;;;;-144.57;100.00;62443.72;5028634;28;20042;-63
2023/03/17 08:18:08;;;;;;;3.50;1.17;;;;;;;-144.57;100.00;62443.72;5030466;28;20037;-62
2023/03/17 08:20:35;;;;;;;1.40;1.10;;;;;;;-144.57;100.00;62443.72;5030431;28;20048;-62
2023/03/17 08:23:01;;;;;;;2.70;1.35;;;;;;;-144.57;100.00;62443.72;5030716;28;20045;-61
2023/03/17 08:25:28;;;;;;;1.40;1.10;;;;;;;-144.57;100.00;62443.72;5016029;28;20387;-63
2023/03/17 08:27:54;;;;;;;3.03;1.38;;;;;;;-144.57;100.00;62443.72;5034090;28;20041;-60
2023/03/17 08:30:20;;;;;;;4.32;1.50;;;;;;;-144.57;100.00;62443.72;5016738;28;20042;-63
2023/03/17 08:32:46;;;;;;;3.65;1.35;;;;;;;-144.57;100.00;62443.72;5034070;28;20052;-62
2023/03/17 08:35:14;;;;;;;1.95;1.00;;;;;;;-144.57;100.00;62443.72;5033398;28;20128;-62
2023/03/17 08:37:45;;;;;;;2.08;1.23;;;;;;;-144.57;100.00;62443.72;5034003;28;20045;-61
2023/03/17 08:40:15;;;;;;;2.40;1.27;;;;;;;-144.57;100.00;62443.72;5015994;28;20041;-63
2023/03/17 08:42:45;;;;;;;2.00;1.38;;;;;;;-144.57;100.00;62443.72;5033488;28;20040;-64
2023/03/17 08:45:11;;;;;;;1.38;1.20;;;;;;;-144.57;100.00;62443.72;5032129;28;20048;-64
2023/03/17 08:47:38;;;;;;;2.47;1.48;;;;;;;-144.57;100.00;62443.72;5014788;28;20048;-65
2023/03/17 08:50:07;;;;;;;1.63;1.17;;;;;;;-144.57;100.00;62443.72;4996197;28;20077;-62
2023/03/17 08:52:34;;;;;;;1.85;1.13;;;;;;;-144.57;100.00;62443.72;5013118;28;20498;-62
2023/03/17 08:55:00;;;;;;;1.33;1.10;;;;;;;-144.57;100.00;62443.72;4994411;28;20537;-63
2023/03/17 08:57:26;;;;;;;3.67;1.60;;;;;;;-144.57;100.00;62443.72;5013299;28;20054;-63
2023/03/17 08:59:53;;;;;;;3.03;2.00;;;;;;;-144.57;100.00;62443.72;5014328;28;20049;-63
2023/03/17 09:02:19;;;;;;;3.10;1.20;;;;;;;-144.57;100.00;62443.72;5013315;28;20411;-62
2023/03/17 09:04:45;;;;;;;1.95;1.20;;;;;;;-144.57;100.00;62443.72;5012743;28;20048;-63
2023/03/17 09:07:12;;;;;;;3.28;1.25;;;;;;;-144.57;100.00;62443.72;5013540;28;20188;-65
2023/03/17 09:09:38;;;;;;;1.85;1.60;;;;;;;-144.57;100.00;62443.72;5009935;28;20081;-63
2023/03/17 09:12:06;;;;;;;2.20;1.20;;;;;;;-144.57;100.00;62443.72;5010628;28;20049;-65
2023/03/17 09:14:33;;;;;;;2.53;1.48;;;;;;;-144.57;100.00;62443.72;4968999;28;20045;-62
2023/03/17 09:17:02;;;;;;;1.95;1.10;;;;;;;-144.57;100.00;62443.72;4977160;28;20061;-64
2023/03/17 09:19:28;;;;;;;2.40;1.85;;;;;;;-144.57;100.00;62443.72;5006461;28;20552;-63
2023/03/17 09:21:54;;;;;;;1.65;1.30;;;;;;;-144.57;100.00;62443.72;5030816;28;20084;-63
2023/03/17 09:24:19;;;;;;;1.60;1.23;;;;;;;-144.57;100.00;62443.72;4995774;28;20041;-64
2023/03/17 09:26:45;;;;;;;1.88;1.02;;;;;;;-144.57;100.00;62443.72;5027457;28;20037;-64
2023/03/17 09:29:11;;;;;;;1.73;1.10;;;;;;;-144.57;100.00;62443.72;5011058;28;20480;-64
2023/03/17 09:31:37;;;;;;;1.45;1.13;;;;;;;-144.57;100.00;62443.72;5011238;28;20072;-63
2023/03/17 09:34:04;;;;;;;5.40;1.25;;;;;;;-144.57;100.00;62443.72;5012964;28;20135;-64
2023/03/17 09:36:31;;;;;;;3.10;1.20;;;;;;;-144.57;100.00;62443.72;5012975;28;20058;-63
2023/03/17 09:38:58;;;;;;;1.38;1.27;;;;;;;-144.57;100.00;62443.72;4994654;28;20439;-61
2023/03/17 09:41:57;;;;;;;1.05;0.90;;;;;;;-144.57;100.00;62443.72;5012637;28;20046;-63
2023/03/17 09:44:47;;;;;;;2.22;1.30;;;;;;;-144.57;100.00;62443.72;4994761;28;20060;-62
2023/03/17 09:47:47;;;;;;;1.85;1.10;;;;;;;-144.57;100.00;62443.72;4991014;28;20041;-63
2023/03/17 09:50:16;;;;;;;1.90;1.02;;;;;;;-144.57;100.00;62443.72;5011025;28;20073;-64
2023/03/17 09:52:42;;;;;;;1.15;0.85;;;;;;;-144.57;100.00;62443.72;5011596;28;20041;-63
2023/03/17 09:55:13;;;;;;;1.20;0.90;;;;;;;-144.57;100.00;62443.72;4994634;28;20053;-62
2023/03/17 09:57:40;;;;;;;1.48;1.20;;;;;;;-144.57;100.00;62443.72;5011428;28;20414;-62
2023/03/17 10:00:13;;;;;;;1.55;1.20;;;;;;;-144.57;100.00;62443.72;4994361;28;20501;-62
2023/03/17 10:02:40;;;;;;;1.17;1.08;;;;;;;-144.57;100.00;62443.72;5012563;28;20109;-63
2023/03/17 10:05:15;;;;;;;1.25;1.05;;;;;;;-144.57;100.00;62443.72;5012534;28;20204;-63
2023/03/17 10:08:06;;;;;;;1.35;1.20;;;;;;;-144.57;100.00;62443.72;5012550;28;20046;-63
2023/03/17 10:10:41;;;;;;;1.98;1.00;;;;;;;-144.57;100.00;62443.72;5012199;28;20042;-63
2023/03/17 10:13:20;;;;;;;1.52;1.02;;;;;;;-144.57;100.00;62443.72;4994419;28;20053;-62
2023/03/17 10:15:54;;;;;;;2.20;1.23;;;;;;;-144.57;100.00;62443.72;5011915;28;20046;-63
2023/03/17 10:18:24;;;;;;;2.58;1.25;;;;;;;-144.57;100.00;62443.72;5012056;28;20072;-62
2023/03/17 10:20:56;;;;;;;4.68;1.48;;;;;;;-144.57;100.00;62443.72;4992103;28;20042;-62
2023/03/17 10:23:30;;;;;;;1.83;1.10;;;;;;;-144.57;100.00;62443.72;4993883;28;20050;-62
2023/03/17 10:26:00;;;;;;;1.85;1.23;;;;;;;-144.57;100.00;62443.72;5012371;28;20422;-63
2023/03/17 10:28:34;;;;;;;1.63;1.30;;;;;;;-144.57;100.00;62443.72;4994186;28;20052;-62
2023/03/17 10:31:12;;;;;;;1.02;1.02;;;;;;;-144.57;100.00;62443.72;5010680;28;20457;-63
2023/03/17 10:33:38;;;;;;;0.95;0.95;;;;;;;-144.57;100.00;62443.72;5012079;28;20054;-62
2023/03/17 10:36:09;;;;;;;1.23;1.08;;;;;;;-144.57;100.00;62443.72;4993686;28;20038;-63
2023/03/17 10:38:35;;;;;;;1.33;1.23;;;;;;;-144.57;100.00;62443.72;4994572;28;20042;-62
2023/03/17 10:41:11;;;;;;;1.63;1.00;;;;;;;-144.57;100.00;62443.72;5010562;28;20453;-62
2023/03/17 10:43:44;;;;;;;7.15;3.08;;;;;;;-144.57;100.00;62443.72;4994865;28;20491;-61
2023/03/17 10:46:17;;;;;;;1.85;1.17;;;;;;;-144.57;100.00;62443.72;5009982;28;20092;-62
2023/03/17 10:49:09;;;;;;;4.35;1.45;;;;;;;-144.57;100.00;62443.72;5011130;28;20077;-63
2023/03/17 10:51:39;;;;;;;2.58;1.10;;;;;;;-144.57;100.00;62443.72;5010483;28;20129;-63
2023/03/17 10:54:10;;;;;;;2.13;1.00;;;;;;;-144.57;100.00;62443.72;5011119;28;20081;-62
2023/03/17 10:56:39;;;;;;;1.48;1.10;;;;;;;-144.57;100.00;62443.72;5011211;28;20520;-64
2023/03/17 10:59:31;;;;;;;1.10;0.90;;;;;;;-144.57;100.00;62443.72;5011244;28;20502;-63
2023/03/17 11:01:59;;;;;;;0.90;0.90;;;;;;;-144.57;100.00;62443.72;5001236;28;20050;-64
2023/03/17 11:04:34;;;;;;;1.58;1.40;;;;;;;-144.57;100.00;62443.72;4973646;28;20116;-63
2023/03/17 11:07:09;;;;;;;1.88;1.33;;;;;;;-144.57;100.00;62443.72;4989621;28;20050;-63
2023/03/17 11:09:36;;;;;;;1.35;1.17;;;;;;;-144.57;100.00;62443.72;4990960;28;20053;-61
2023/03/17 11:12:25;;;;;;;3.45;1.00;;;;;;;-144.57;100.00;62443.72;4992662;28;20065;-61